Time;durP1;ratioP1;P1;durP2;ratioP2;P2;SDS_P1;SDS_P2;PMS_P1;PMS_P2;Temp;Humidity;BMP_temperature;BMP_pressure;BME280_temperature;BME280_humidity;BME280_pressure;Samples;Min_cycle;Max_cycle;Signal;HPM_P1;HPM_P2
2022/10/09 00:01:34;;;;;;;1.15;0.93;;;13.50;53.50;;;12.31;54.12;102035.50;12250174;19;20018;-80
2022/10/09 00:05:37;;;;;;;2.97;1.27;;;13.20;53.40;;;12.31;53.92;102036.38;12251893;19;20014;-81
2022/10/09 00:09:38;;;;;;;3.00;1.08;;;13.20;53.30;;;12.28;54.02;102035.63;12249946;19;20018;-81
2022/10/09 00:13:41;;;;;;;1.58;1.00;;;13.20;53.30;;;12.20;54.06;102046.41;12252295;19;20014;-81
2022/10/09 00:17:42;;;;;;;1.20;1.10;;;13.10;53.30;;;12.20;54.18;102050.81;12262685;19;20074;-81
2022/10/09 00:21:44;;;;;;;1.88;1.20;;;13.10;53.40;;;12.12;54.10;102049.38;12258372;19;20531;-81
2022/10/09 00:25:59;;;;;;;2.42;2.00;;;13.00;53.50;;;12.07;54.32;102042.59;12254326;19;20014;-81
2022/10/09 00:30:01;;;;;;;1.70;1.52;;;13.00;53.60;;;12.10;54.24;102064.28;12251600;19;20083;-81
2022/10/09 00:34:02;;;;;;;2.03;1.38;;;13.00;53.60;;;11.95;54.33;102052.66;12251813;19;20066;-81
2022/10/09 00:38:05;;;;;;;1.52;1.35;;;13.00;53.60;;;12.05;54.32;102076.72;12254332;19;20054;-81
2022/10/09 00:42:12;;;;;;;1.40;1.27;;;12.90;53.60;;;11.96;54.31;102069.19;12251723;19;20595;-81
2022/10/09 00:46:49;;;;;;;3.78;1.80;;;12.90;53.60;;;11.99;54.18;102076.06;12252307;19;20464;-80
2022/10/09 00:50:58;;;;;;;2.88;1.60;;;12.90;53.60;;;11.90;54.37;102070.28;12248051;19;20014;-81
2022/10/09 00:55:02;;;;;;;3.35;2.25;;;12.90;53.60;;;11.85;54.34;102064.34;12251660;19;20013;-81
2022/10/09 00:59:05;;;;;;;2.67;1.77;;;12.90;53.60;;;11.84;54.31;102062.66;12246875;19;20342;-81
2022/10/09 01:03:06;;;;;;;2.08;1.75;;;12.80;53.50;;;11.89;54.34;102092.16;12248139;19;20563;-81
2022/10/09 01:07:42;;;;;;;2.38;1.40;;;12.80;53.50;;;11.76;54.23;102080.41;12246591;19;20010;-80
2022/10/09 01:12:20;;;;;;;1.30;0.95;;;12.80;53.50;;;11.75;54.28;102078.72;12246681;19;20034;-81
2022/10/09 01:16:36;;;;;;;0.93;0.93;;;12.70;53.50;;;11.71;54.28;102090.22;12248463;19;20014;-80
2022/10/09 01:20:48;;;;;;;1.52;1.00;;;12.70;53.40;;;11.47;54.08;102078.91;12245469;19;20015;-80
2022/10/09 01:25:09;;;;;;;0.82;0.82;;;12.60;53.30;;;11.56;54.28;102099.50;12260569;19;20018;-81
2022/10/09 01:29:13;;;;;;;2.00;0.95;;;12.60;53.30;;;11.53;54.20;102107.47;12258860;19;20023;-81
2022/10/09 01:33:16;;;;;;;1.35;0.98;;;12.50;53.30;;;11.49;54.17;102106.72;12257316;19;20003;-80
2022/10/09 01:37:20;;;;;;;1.33;0.95;;;12.50;53.40;;;11.05;54.39;102040.34;12259404;19;20018;-81
2022/10/09 01:41:23;;;;;;;3.37;1.07;;;12.40;53.40;;;11.43;54.15;102109.56;12258577;19;20406;-81
2022/10/09 01:45:33;;;;;;;1.30;0.98;;;12.30;53.30;;;11.31;54.38;102099.53;12262264;19;20018;-81
2022/10/09 01:50:23;;;;;;;1.38;0.75;;;12.30;53.30;;;11.29;54.49;102123.13;12256765;19;20044;-81
2022/10/09 01:54:40;;;;;;;1.08;0.80;;;12.30;53.50;;;11.21;54.37;102103.41;12257855;19;20369;-80
2022/10/09 01:58:54;;;;;;;0.88;0.80;;;12.30;53.50;;;11.18;54.22;102108.72;12256915;19;20042;-80
2022/10/09 02:02:56;;;;;;;2.13;1.00;;;12.20;53.40;;;11.19;54.39;102113.06;12256450;19;20358;-80
2022/10/09 02:06:59;;;;;;;0.68;0.68;;;12.20;53.40;;;11.19;54.46;102126.97;12255918;19;20010;-80
2022/10/09 02:11:02;;;;;;;0.77;0.77;;;12.10;53.30;;;11.05;54.27;102117.00;12250671;19;20074;-81
2022/10/09 02:15:05;;;;;;;1.30;1.20;;;12.10;53.20;;;10.99;54.47;102119.84;12256022;19;20010;-80
2022/10/09 02:19:20;;;;;;;1.23;1.13;;;12.10;53.30;;;10.92;54.28;102127.94;12257735;19;20026;-81
2022/10/09 02:23:24;;;;;;;1.08;1.02;;;12.00;53.20;;;10.80;54.37;102113.50;12273462;19;20039;-81
2022/10/09 02:27:26;;;;;;;1.52;1.08;;;11.90;53.20;;;10.76;54.33;102119.75;12264963;19;20525;-81
2022/10/09 02:31:32;;;;;;;1.33;1.20;;;12.00;53.30;;;10.78;54.43;102131.88;12256080;19;20022;-81
2022/10/09 02:35:35;;;;;;;1.85;1.45;;;11.80;53.30;;;10.77;54.43;102142.34;12261498;19;20077;-81
2022/10/09 02:39:37;;;;;;;2.00;1.42;;;11.70;53.20;;;10.65;54.42;102122.72;12255682;19;20086;-81
2022/10/09 02:43:38;;;;;;;3.20;1.40;;;11.70;53.30;;;10.71;54.49;102139.97;12257871;19;20417;-82
2022/10/09 02:47:40;;;;;;;2.47;1.70;;;11.60;53.30;;;10.66;54.54;102131.41;12257668;19;20026;-80
2022/10/09 02:51:42;;;;;;;2.75;1.90;;;11.60;53.40;;;10.54;54.39;102120.47;12254230;19;20020;-80
2022/10/09 02:55:43;;;;;;;3.58;1.20;;;11.60;53.40;;;10.55;54.59;102123.94;12257356;19;20021;-80
2022/10/09 02:59:45;;;;;;;2.85;1.30;;;11.60;53.40;;;10.58;54.59;102136.88;12254323;19;20038;-80
2022/10/09 03:03:46;;;;;;;1.45;1.20;;;11.60;53.40;;;10.46;54.43;102119.00;12256081;19;20491;-80
2022/10/09 03:07:51;;;;;;;1.38;1.13;;;11.50;53.30;;;10.53;54.52;102141.41;12256058;19;20497;-80
2022/10/09 03:11:52;;;;;;;1.30;1.20;;;11.50;53.30;;;10.54;54.42;102149.19;12254925;19;20014;-80
2022/10/09 03:16:00;;;;;;;3.90;1.48;;;11.50;53.30;;;10.49;54.50;102156.31;12255001;19;20018;-80
2022/10/09 03:20:02;;;;;;;1.20;1.08;;;11.50;53.20;;;10.42;54.52;102154.78;12251747;19;20019;-81
2022/10/09 03:24:03;;;;;;;1.70;1.10;;;11.40;53.20;;;10.30;54.38;102150.81;12253465;19;20031;-80
2022/10/09 03:28:05;;;;;;;1.75;1.10;;;11.40;53.20;;;10.37;54.58;102160.19;12255840;19;20024;-81
2022/10/09 03:32:07;;;;;;;1.13;1.00;;;11.60;53.30;;;10.29;54.64;102158.69;12255033;19;20504;-80
2022/10/09 03:36:09;;;;;;;1.33;1.17;;;11.30;53.20;;;10.29;54.52;102166.53;12255564;19;20014;-80
2022/10/09 03:40:11;;;;;;;1.00;0.90;;;11.30;53.30;;;10.17;54.41;102157.28;12252105;19;20010;-81
2022/10/09 03:44:12;;;;;;;1.00;0.90;;;11.30;53.20;;;10.25;54.49;102177.94;12252113;19;20358;-80
2022/10/09 03:48:15;;;;;;;1.33;0.90;;;11.20;53.20;;;10.20;54.57;102184.16;12252454;19;20017;-79
2022/10/09 03:52:16;;;;;;;0.82;0.82;;;11.20;53.20;;;10.15;54.67;102183.47;12252057;19;20018;-80
2022/10/09 03:56:18;;;;;;;1.42;1.00;;;11.20;53.30;;;9.97;54.74;102160.50;12255396;19;20015;-80
2022/10/09 04:00:20;;;;;;;1.45;0.93;;;11.10;53.30;;;10.13;54.60;102180.03;12251986;19;20010;-80
2022/10/09 04:04:22;;;;;;;1.88;1.00;;;11.10;53.20;;;10.10;54.65;102190.56;12253453;19;20018;-80
2022/10/09 04:08:23;;;;;;;0.65;0.65;;;11.10;53.20;;;10.10;54.77;102185.34;12253813;19;20007;-81
2022/10/09 04:12:25;;;;;;;1.10;0.95;;;11.10;53.20;;;10.03;54.64;102182.97;12252320;19;20035;-80
2022/10/09 04:16:27;;;;;;;1.15;1.00;;;11.20;53.30;;;9.99;54.65;102192.66;12253032;19;20014;-81
2022/10/09 04:20:28;;;;;;;0.90;0.90;;;11.00;53.20;;;9.99;54.71;102203.09;12251202;19;20014;-81
2022/10/09 04:24:30;;;;;;;0.90;0.88;;;11.00;53.20;;;9.93;54.80;102198.00;12260710;19;20010;-80
2022/10/09 04:28:32;;;;;;;1.75;0.90;;;11.00;53.20;;;9.82;54.66;102195.72;12271885;19;20019;-80
2022/10/09 04:32:34;;;;;;;1.13;0.90;;;10.90;53.20;;;9.77;54.88;102191.53;12260472;19;20034;-80
2022/10/09 04:36:36;;;;;;;1.00;1.00;;;11.00;53.30;;;9.84;54.68;102206.13;12261940;19;20002;-80
2022/10/09 04:40:37;;;;;;;1.80;1.25;;;10.80;53.30;;;9.75;54.71;102187.22;12259099;19;20018;-80
2022/10/09 04:44:39;;;;;;;1.05;0.80;;;10.80;53.30;;;9.70;54.67;102194.31;12256861;19;20413;-80
2022/10/09 04:48:44;;;;;;;0.73;0.73;;;10.80;53.20;;;9.57;54.85;102179.91;12256687;19;20478;-81
2022/10/09 04:52:46;;;;;;;0.85;0.85;;;10.80;53.20;;;9.44;54.84;102166.34;12254638;19;20485;-81
2022/10/09 04:56:48;;;;;;;1.05;0.80;;;10.70;53.20;;;9.63;54.81;102211.03;12270770;19;20014;-81
2022/10/09 05:00:50;;;;;;;1.00;1.00;;;10.70;53.30;;;9.51;54.90;102196.56;12265942;19;20019;-80
2022/10/09 05:04:51;;;;;;;0.70;0.70;;;10.70;53.40;;;9.64;54.85;102217.09;12267960;19;20014;-81
2022/10/09 05:08:53;;;;;;;1.00;1.00;;;10.70;53.30;;;9.59;54.67;102226.81;12265714;19;20040;-80
2022/10/09 05:12:55;;;;;;;2.58;0.82;;;10.70;53.30;;;9.58;54.81;102225.94;12260204;19;20033;-81
2022/10/09 05:17:01;;;;;;;0.75;0.75;;;10.60;53.20;;;9.47;54.69;102212.34;12265975;19;20011;-81
2022/10/09 05:21:04;;;;;;;1.77;1.20;;;10.60;53.30;;;9.46;54.65;102227.13;12259379;19;20126;-81
2022/10/09 05:25:06;;;;;;;1.23;1.00;;;10.60;53.10;;;9.19;54.86;102200.03;12264484;19;20002;-81
2022/10/09 05:29:08;;;;;;;2.40;1.02;;;10.50;53.10;;;9.39;54.84;102237.75;12257265;19;20039;-80
2022/10/09 05:33:10;;;;;;;4.15;1.00;;;10.50;53.20;;;9.37;54.68;102243.03;12257916;19;20019;-80
2022/10/09 05:37:12;;;;;;;1.40;0.73;;;10.40;53.20;;;9.36;54.89;102251.72;12255639;19;20014;-80
2022/10/09 05:41:16;;;;;;;1.70;1.00;;;10.40;53.20;;;9.26;54.73;102235.47;12251887;19;20009;-80
2022/10/09 05:45:17;;;;;;;4.30;1.65;;;10.40;53.20;;;9.24;54.76;102239.88;12258505;19;20018;-80
2022/10/09 05:49:19;;;;;;;2.15;0.90;;;10.40;53.30;;;9.33;55.00;102259.63;12256878;19;20007;-81
2022/10/09 05:53:21;;;;;;;1.85;1.05;;;10.30;53.20;;;9.31;54.89;102270.06;12257209;19;20010;-80
2022/10/09 05:57:22;;;;;;;2.17;1.10;;;10.40;53.30;;;9.30;54.79;102270.97;12257269;19;20022;-81
2022/10/09 06:01:28;;;;;;;1.33;0.82;;;10.30;53.30;;;9.21;55.12;102263.41;12252251;19;20011;-80
2022/10/09 06:05:30;;;;;;;1.02;1.00;;;10.30;53.30;;;9.26;54.94;102278.91;12254997;19;20019;-80
2022/10/09 06:09:32;;;;;;;1.20;0.77;;;10.30;53.30;;;9.24;55.05;102281.56;12253015;19;20457;-80
2022/10/09 06:13:33;;;;;;;0.75;0.70;;;10.30;53.30;;;9.23;54.90;102284.19;12250878;19;20473;-81
2022/10/09 06:17:35;;;;;;;4.20;1.15;;;10.30;53.40;;;9.20;54.88;102287.72;12254585;19;20022;-81
2022/10/09 06:21:37;;;;;;;1.00;1.00;;;10.30;53.50;;;9.21;54.97;102297.28;12252475;19;20011;-80
2022/10/09 06:25:48;;;;;;;1.10;1.10;;;10.30;53.40;;;9.22;54.87;102300.75;12253253;19;20010;-79
2022/10/09 06:29:52;;;;;;;1.23;1.20;;;10.30;53.50;;;9.12;54.93;102287.06;12267926;19;20091;-80
2022/10/09 06:33:54;;;;;;;2.35;1.48;;;10.30;53.60;;;9.15;54.98;102292.19;12262533;19;20011;-81
2022/10/09 06:37:56;;;;;;;1.30;1.15;;;10.30;53.70;;;9.21;55.32;102306.88;12259769;19;20023;-81
2022/10/09 06:41:57;;;;;;;2.35;1.40;;;10.30;53.90;;;9.27;55.18;102320.59;12258777;19;20022;-82
2022/10/09 06:46:14;;;;;;;2.35;1.50;;;10.40;53.90;;;9.31;55.24;102329.19;12261319;19;20035;-81
2022/10/09 06:50:15;;;;;;;2.25;2.00;;;10.40;54.00;;;9.33;55.27;102321.34;12261551;19;20119;-80
2022/10/09 06:54:17;;;;;;;4.65;2.22;;;10.40;54.30;;;9.29;55.30;102315.34;12259388;19;20003;-82
2022/10/09 06:58:19;;;;;;;3.28;2.45;;;10.50;54.40;;;9.16;55.48;102288.72;12257860;19;20006;-81
2022/10/09 07:02:21;;;;;;;2.60;2.13;;;10.60;54.60;;;9.43;55.37;102328.91;12265794;19;20464;-80
2022/10/09 07:06:27;;;;;;;3.45;2.40;;;10.60;54.60;;;9.52;55.35;102343.47;12256704;19;20014;-80
2022/10/09 07:10:29;;;;;;;2.80;2.58;;;10.70;54.70;;;9.41;55.50;102320.25;12256891;19;20035;-81
2022/10/09 07:14:30;;;;;;;4.25;2.65;;;10.70;54.70;;;9.64;55.45;102347.50;12262954;19;20010;-81
2022/10/09 07:18:33;;;;;;;2.22;1.90;;;10.80;54.90;;;9.63;55.50;102346.66;12253962;19;20010;-80
2022/10/09 07:22:34;;;;;;;1.58;1.45;;;10.80;55.00;;;9.75;55.76;102353.31;12256553;19;20060;-82
2022/10/09 07:26:40;;;;;;;3.17;1.70;;;10.90;55.20;;;9.67;55.71;102332.66;12254053;19;20042;-80
2022/10/09 07:30:42;;;;;;;1.65;1.10;;;11.00;55.40;;;9.88;55.73;102351.22;12250422;19;20010;-81
2022/10/09 07:34:44;;;;;;;1.10;1.00;;;11.20;55.60;;;9.86;55.81;102342.63;12249817;19;20018;-81
2022/10/09 07:38:51;;;;;;;1.52;1.38;;;11.10;55.80;;;9.90;55.96;102339.88;12245998;19;20018;-80
2022/10/09 07:42:53;;;;;;;1.15;0.98;;;11.20;56.10;;;10.07;56.23;102346.38;12252273;19;20007;-80
2022/10/09 07:46:55;;;;;;;2.58;1.15;;;11.30;56.30;;;10.29;56.11;102358.00;12249474;19;20024;-81
2022/10/09 07:50:56;;;;;;;1.95;1.48;;;11.40;56.60;;;10.33;56.26;102350.94;12249694;19;20461;-81
2022/10/09 07:54:58;;;;;;;1.90;1.38;;;11.60;56.90;;;10.59;56.63;102356.28;12251801;19;20720;-82
2022/10/09 07:59:03;;;;;;;1.52;1.10;;;11.80;57.20;;;10.77;56.62;102365.31;12246429;19;20011;-81
2022/10/09 08:03:04;;;;;;;1.55;1.40;;;12.00;57.40;;;11.02;56.70;102375.91;12253233;19;20010;-81
2022/10/09 08:07:06;;;;;;;2.33;1.65;;;12.20;57.50;;;11.14;56.81;102352.91;12249987;19;20018;-80
2022/10/09 08:11:16;;;;;;;2.38;1.75;;;12.40;57.40;;;11.05;56.92;102318.28;12246007;19;20010;-80
2022/10/09 08:15:18;;;;;;;2.35;1.48;;;12.60;57.50;;;11.45;56.93;102358.88;12249651;19;20010;-80
2022/10/09 08:19:19;;;;;;;3.22;2.53;;;12.80;57.60;;;11.72;57.19;102366.72;12248370;19;20022;-82
2022/10/09 08:23:21;;;;;;;1.65;1.55;;;13.00;57.40;;;11.93;57.04;102375.59;12250395;19;20488;-81
2022/10/09 08:27:22;;;;;;;2.58;1.42;;;13.20;57.30;;;12.04;57.08;102370.00;12248819;19;20658;-81
2022/10/09 08:31:26;;;;;;;1.63;1.20;;;13.30;57.30;;;12.27;57.27;102385.78;12245136;19;20019;-80
2022/10/09 08:35:28;;;;;;;1.85;1.58;;;13.80;57.30;;;12.45;57.34;102389.50;12265674;19;20059;-81
2022/10/09 08:39:29;;;;;;;1.48;1.02;;;13.70;57.00;;;12.47;57.32;102358.00;12249634;19;20405;-81
2022/10/09 08:43:38;;;;;;;2.00;1.83;;;13.90;57.10;;;12.82;57.32;102386.34;12248877;19;20019;-81
2022/10/09 08:47:55;;;;;;;2.80;1.35;;;14.10;57.10;;;12.96;57.57;102384.97;12249383;19;20025;-81
2022/10/09 08:52:12;;;;;;;1.58;1.23;;;14.30;56.80;;;13.19;57.40;102398.06;12249314;19;20015;-81
2022/10/09 08:56:14;;;;;;;2.60;1.73;;;14.50;56.70;;;13.38;57.40;102387.72;12248446;19;20022;-81
2022/10/09 09:00:26;;;;;;;2.38;1.27;;;14.70;56.90;;;13.60;57.59;102386.84;12242778;19;20023;-81
2022/10/09 09:04:59;;;;;;;3.05;1.58;;;15.00;56.80;;;13.80;57.48;102378.13;12247286;19;20018;-81
2022/10/09 09:09:23;;;;;;;2.72;1.25;;;15.10;56.30;;;14.01;57.66;102387.72;12240078;19;20006;-81
2022/10/09 09:14:00;;;;;;;4.43;1.33;;;15.40;56.50;;;14.23;57.52;102392.03;12241093;19;20050;-81
2022/10/09 09:18:41;;;;;;;3.13;1.30;;;15.60;56.20;;;14.42;57.25;102389.44;12238926;19;20014;-81
2022/10/09 09:22:47;;;;;;;1.80;1.05;;;15.90;56.00;;;14.60;57.47;102384.25;12240315;19;20026;-80
2022/10/09 09:26:55;;;;;;;1.45;1.20;;;16.00;55.70;;;14.57;57.50;102354.63;12240799;19;20018;-81
2022/10/09 09:31:05;;;;;;;1.88;1.02;;;16.10;55.70;;;14.98;57.44;102383.41;12237653;19;20022;-80
2022/10/09 09:35:40;;;;;;;2.35;1.17;;;16.30;55.80;;;15.08;57.41;102366.25;12243431;19;20022;-80
2022/10/09 09:39:42;;;;;;;1.65;0.80;;;16.50;55.70;;;15.38;57.43;102376.22;12237461;19;20404;-82
2022/10/09 09:43:45;;;;;;;2.33;1.05;;;16.70;55.80;;;15.55;57.36;102373.59;12254671;19;20028;-81
2022/10/09 09:47:53;;;;;;;2.13;0.85;;;17.10;55.90;;;15.74;57.57;102364.81;12253051;19;20014;-81
2022/10/09 09:51:59;;;;;;;2.83;1.05;;;17.10;55.50;;;15.66;57.20;102313.38;12250680;19;20110;-81
2022/10/09 09:56:01;;;;;;;1.85;0.98;;;17.40;54.90;;;16.16;56.97;102361.75;12256509;19;20504;-81
2022/10/09 10:00:18;;;;;;;3.75;0.90;;;17.50;54.30;;;16.17;56.99;102337.09;12245426;19;20421;-84
2022/10/09 10:04:19;;;;;;;2.63;0.90;;;17.70;54.60;;;16.37;57.06;102334.25;12250990;19;20042;-82
2022/10/09 10:08:32;;;;;;;2.72;1.10;;;17.90;54.50;;;16.60;57.05;102345.34;12251404;19;20018;-82
2022/10/09 10:12:40;;;;;;;2.42;0.80;;;18.10;54.10;;;16.77;56.92;102355.00;12253201;19;20033;-83
2022/10/09 10:16:43;;;;;;;3.25;0.75;;;18.30;54.00;;;16.94;56.59;102362.84;12254893;19;20093;-82
2022/10/09 10:20:54;;;;;;;2.83;1.17;;;18.30;53.60;;;16.87;56.41;102321.03;12253261;19;20014;-83
2022/10/09 10:24:58;;;;;;;3.08;0.70;;;18.40;53.40;;;17.10;56.49;102341.72;12258344;19;20073;-84
2022/10/09 10:29:14;;;;;;;2.45;1.10;;;18.50;53.10;;;17.19;56.35;102332.41;12252691;19;20010;-83
2022/10/09 10:33:26;;;;;;;;;;;18.60;53.40;;;17.34;56.39;102350.03;12253500;19;20014;-84
2022/10/09 10:37:44;;;;;;;2.67;0.80;;;18.70;53.60;;;17.46;56.13;102345.81;12256858;19;19947;-83
2022/10/09 10:41:52;;;;;;;3.85;0.90;;;18.80;52.40;;;17.35;56.16;102311.25;12269271;19;20010;-83
2022/10/09 10:46:10;;;;;;;2.72;0.88;;;18.90;52.80;;;17.72;56.17;102354.00;12258905;19;20013;-82
2022/10/09 10:50:16;;;;;;;7.43;0.90;;;19.00;52.70;;;17.76;55.97;102331.72;12254928;19;20018;-84
2022/10/09 10:54:29;;;;;;;2.50;0.75;;;19.10;52.30;;;17.85;55.90;102325.94;12256990;19;20011;-85
2022/10/09 10:58:53;;;;;;;2.72;1.13;;;19.20;52.20;;;18.00;55.52;102340.00;12258111;19;20368;-83
2022/10/09 11:03:09;;;;;;;4.22;1.02;;;19.50;51.80;;;17.96;55.37;102307.63;12259421;19;20014;-83
2022/10/09 11:07:53;;;;;;;4.93;1.15;;;19.40;51.90;;;18.10;55.11;102331.41;12259111;19;20074;-83
2022/10/09 11:12:11;;;;;;;2.95;1.00;;;19.40;52.00;;;18.16;55.28;102321.41;12253346;19;20041;-81
2022/10/09 11:16:41;;;;;;;1.95;1.00;;;19.40;51.70;;;18.09;55.11;102295.34;12258038;19;20024;-81
2022/10/09 11:21:08;;;;;;;5.25;1.23;;;19.50;51.60;;;18.22;54.86;102319.22;12246214;19;20010;-82
2022/10/09 11:25:49;;;;;;;2.47;0.68;;;19.50;51.80;;;18.30;54.72;102310.81;12248020;19;20011;-81
2022/10/09 11:30:10;;;;;;;4.93;1.25;;;19.50;51.00;;;18.30;54.78;102303.72;12245985;19;20002;-80
2022/10/09 11:34:20;;;;;;;2.33;0.80;;;19.60;50.80;;;18.31;54.43;102288.72;12243016;19;20361;-80
2022/10/09 11:38:52;;;;;;;2.03;0.80;;;19.60;50.60;;;18.38;54.24;102303.25;12244505;19;20033;-79
2022/10/09 11:43:23;;;;;;;4.45;1.10;;;19.60;50.60;;;18.37;54.05;102293.63;12247794;19;20073;-80
2022/10/09 11:47:33;;;;;;;4.03;0.80;;;19.70;50.60;;;18.35;54.27;102282.28;12248483;19;20496;-80
2022/10/09 11:52:02;;;;;;;3.28;1.05;;;19.50;50.70;;;18.32;54.06;102279.84;12246158;19;20015;-80
2022/10/09 11:56:28;;;;;;;1.85;0.70;;;19.60;50.20;;;18.37;53.54;102283.03;12245182;19;20003;-79
2022/10/09 12:00:33;;;;;;;1.75;0.85;;;19.50;49.70;;;18.39;53.73;102277.63;12241417;19;20019;-79
2022/10/09 12:04:34;;;;;;;3.25;0.70;;;19.50;49.70;;;18.35;53.50;102261.97;12242042;19;20007;-79
2022/10/09 12:08:39;;;;;;;1.95;0.60;;;19.50;49.30;;;18.39;53.42;102261.78;12241081;19;20022;-79
2022/10/09 12:12:41;;;;;;;2.70;0.77;;;19.50;49.90;;;18.45;53.40;102256.13;12241931;19;20078;-79
2022/10/09 12:16:45;;;;;;;3.83;0.75;;;19.50;49.30;;;18.48;53.13;102248.81;12242596;19;20018;-79
2022/10/09 12:20:49;;;;;;;3.03;0.73;;;19.60;49.20;;;18.47;53.10;102244.47;12238254;19;20055;-79
2022/10/09 12:24:57;;;;;;;3.03;0.90;;;19.60;49.10;;;18.56;52.95;102251.81;12244060;19;20730;-79
2022/10/09 12:29:03;;;;;;;2.92;1.25;;;19.60;49.30;;;18.53;52.71;102236.16;12247438;19;20514;-84
2022/10/09 12:33:57;;;;;;;1.67;0.70;;;19.60;48.60;;;18.57;52.99;102239.44;12248414;19;20014;-79
2022/10/09 12:37:59;;;;;;;2.67;0.88;;;19.70;49.50;;;18.64;52.74;102242.53;12248396;19;20022;-79
2022/10/09 12:42:01;;;;;;;1.23;0.57;;;19.60;48.70;;;18.60;52.63;102222.50;12246082;19;20007;-79
2022/10/09 12:46:03;;;;;;;3.13;0.90;;;19.70;49.00;;;18.69;52.56;102227.22;12245556;19;20015;-79
2022/10/09 12:50:32;;;;;;;1.48;0.70;;;19.70;48.70;;;18.69;52.31;102227.22;12258426;19;20041;-81
2022/10/09 12:54:42;;;;;;;2.50;0.80;;;19.70;49.30;;;18.68;52.52;102220.22;12242800;19;20022;-80
2022/10/09 12:58:44;;;;;;;1.77;0.90;;;19.70;49.10;;;18.63;52.16;102191.41;12241662;19;20023;-80
2022/10/09 13:02:45;;;;;;;0.95;0.60;;;19.80;48.50;;;18.73;52.08;102211.00;12242105;19;20222;-80
2022/10/09 13:06:49;;;;;;;6.03;1.10;;;19.70;48.50;;;18.75;51.86;102218.91;12242013;19;20014;-79
2022/10/09 13:10:52;;;;;;;2.55;0.70;;;19.80;48.20;;;18.66;51.63;102198.28;12236532;19;20093;-79
2022/10/09 13:15:00;;;;;;;2.00;1.00;;;19.70;48.40;;;18.68;51.75;102206.97;12243913;19;20031;-80
2022/10/09 13:19:18;;;;;;;1.25;0.82;;;19.70;48.60;;;18.66;51.84;102212.38;12256586;19;20576;-79
2022/10/09 13:23:34;;;;;;;2.92;0.88;;;19.60;48.20;;;18.61;51.76;102203.06;12257912;19;20039;-79
2022/10/09 13:27:38;;;;;;;2.13;0.70;;;19.60;48.60;;;18.58;51.52;102199.66;12258804;19;20476;-80
2022/10/09 13:31:43;;;;;;;2.47;0.90;;;19.60;48.30;;;18.60;51.63;102196.88;12257140;19;20018;-79
2022/10/09 13:35:45;;;;;;;2.27;0.70;;;19.60;48.70;;;18.53;51.49;102191.16;12257545;19;20433;-79
2022/10/09 13:39:46;;;;;;;2.20;0.75;;;19.50;48.70;;;18.48;51.45;102169.44;12249023;19;20048;-79
2022/10/09 13:43:51;;;;;;;1.90;0.80;;;19.50;48.70;;;18.55;51.52;102183.13;12253374;19;20014;-80
2022/10/09 13:47:53;;;;;;;3.67;0.88;;;19.60;48.80;;;18.63;51.56;102187.91;12251403;19;20042;-80
2022/10/09 13:51:54;;;;;;;1.88;0.80;;;19.50;48.60;;;18.63;51.42;102185.25;12254246;19;20026;-79
2022/10/09 13:55:56;;;;;;;1.63;0.60;;;19.60;48.50;;;18.65;51.08;102176.28;12257024;19;20022;-81
2022/10/09 13:59:57;;;;;;;2.70;0.70;;;19.50;48.50;;;18.66;50.96;102177.13;12255277;19;20040;-79
2022/10/09 14:03:59;;;;;;;1.88;0.63;;;19.50;48.40;;;18.60;50.91;102164.31;12255381;19;20014;-79
2022/10/09 14:08:01;;;;;;;2.50;0.85;;;19.60;48.10;;;18.57;51.01;102163.53;12254728;19;20023;-79
2022/10/09 14:12:02;;;;;;;2.15;0.88;;;19.50;47.90;;;18.58;50.95;102173.19;12247444;19;20010;-79
2022/10/09 14:16:06;;;;;;;1.05;0.70;;;19.50;48.00;;;18.56;50.68;102168.97;12245621;19;20025;-80
2022/10/09 14:20:08;;;;;;;1.40;0.50;;;19.50;47.80;;;18.54;50.96;102176.13;12245939;19;20013;-80
2022/10/09 14:24:10;;;;;;;0.70;0.57;;;19.40;48.10;;;18.52;51.03;102159.50;12250079;19;20078;-80
2022/10/09 14:28:11;;;;;;;1.08;0.57;;;19.40;48.20;;;18.48;50.92;102153.59;12248987;19;20046;-80
2022/10/09 14:32:13;;;;;;;2.55;1.13;;;19.40;48.40;;;18.48;50.63;102144.81;12248614;19;20002;-80
2022/10/09 14:36:19;;;;;;;5.28;0.82;;;19.40;47.70;;;18.46;50.53;102150.19;12253283;19;20011;-80
2022/10/09 14:40:20;;;;;;;2.30;0.82;;;19.30;47.80;;;18.48;50.72;102145.66;12250610;19;20031;-80
2022/10/09 14:44:22;;;;;;;1.75;0.77;;;19.40;48.00;;;18.48;50.70;102144.81;12254015;19;20025;-80
2022/10/09 14:48:23;;;;;;;4.72;0.90;;;19.30;48.00;;;18.44;50.44;102138.84;12252454;19;20022;-80
2022/10/09 14:52:25;;;;;;;2.92;0.70;;;19.30;48.10;;;18.44;50.66;102138.00;12255712;19;20022;-80
2022/10/09 14:56:27;;;;;;;3.33;0.90;;;19.30;48.30;;;18.39;50.85;102127.75;12263781;19;20017;-81
2022/10/09 15:00:28;;;;;;;3.47;0.77;;;19.30;48.50;;;18.40;50.55;102136.53;12253173;19;20374;-80
2022/10/09 15:04:30;;;;;;;3.35;0.70;;;19.30;48.10;;;18.33;50.66;102125.47;12255016;19;20519;-80
2022/10/09 15:08:35;;;;;;;1.88;1.10;;;19.20;48.40;;;18.37;50.61;102128.78;12252698;19;20021;-80
2022/10/09 15:12:37;;;;;;;2.13;0.70;;;19.20;48.60;;;18.36;50.69;102125.28;12252210;19;20030;-81
2022/10/09 15:16:38;;;;;;;2.00;0.70;;;19.20;48.50;;;18.30;50.59;102115.09;12253633;19;20476;-80
2022/10/09 15:20:44;;;;;;;1.83;0.90;;;19.20;48.90;;;18.28;50.66;102120.53;12249362;19;20392;-80
2022/10/09 15:24:46;;;;;;;2.22;0.75;;;19.20;49.30;;;18.27;50.44;102123.25;12247626;19;20047;-80
2022/10/09 15:28:48;;;;;;;1.08;0.75;;;19.10;49.50;;;18.16;50.63;102104.59;12246477;19;20042;-80
2022/10/09 15:32:49;;;;;;;2.75;1.08;;;19.10;49.70;;;18.18;50.74;102115.94;12248949;19;20056;-80
2022/10/09 15:36:51;;;;;;;3.20;1.35;;;19.00;49.60;;;18.13;50.52;102108.28;12249375;19;20014;-81
2022/10/09 15:40:55;;;;;;;1.20;0.75;;;19.20;49.80;;;18.05;50.78;102110.59;12238136;19;20011;-81
2022/10/09 15:44:57;;;;;;;1.23;0.43;;;18.90;50.10;;;17.98;50.84;102112.75;12249160;19;20010;-80
2022/10/09 15:48:59;;;;;;;2.17;0.88;;;18.80;50.10;;;17.89;50.75;102106.25;12248760;19;20563;-80
2022/10/09 15:53:00;;;;;;;3.53;1.10;;;18.70;50.00;;;17.81;50.85;102102.44;12249359;19;20107;-81
2022/10/09 15:57:02;;;;;;;1.90;0.77;;;18.60;50.10;;;17.69;50.80;102107.50;12249475;19;20014;-81
2022/10/09 16:01:07;;;;;;;2.17;0.90;;;18.50;50.10;;;17.58;50.76;102107.34;12244699;19;20015;-81
2022/10/09 16:05:09;;;;;;;3.50;0.90;;;18.40;50.20;;;17.44;50.71;102100.28;12248983;19;20030;-80
2022/10/09 16:09:10;;;;;;;3.40;0.77;;;18.30;50.20;;;17.36;50.77;102106.97;12244806;19;20014;-80
2022/10/09 16:13:13;;;;;;;3.97;0.80;;;18.20;50.30;;;17.26;50.77;102106.69;12242107;19;20014;-80
2022/10/09 16:17:14;;;;;;;1.90;0.80;;;18.10;50.30;;;17.16;50.80;102108.19;12244258;19;20014;-80
2022/10/09 16:21:26;;;;;;;1.45;0.70;;;18.00;50.40;;;17.01;50.78;102096.75;12241424;19;20010;-82
2022/10/09 16:25:27;;;;;;;1.80;0.68;;;17.80;50.30;;;16.79;50.98;102082.22;12244610;19;20053;-81
2022/10/09 16:29:29;;;;;;;6.95;0.90;;;17.70;50.40;;;16.81;51.00;102096.19;12245516;19;20014;-81
2022/10/09 16:33:31;;;;;;;1.90;0.70;;;17.60;50.40;;;16.68;50.83;102091.69;12246480;19;20014;-81
2022/10/09 16:37:32;;;;;;;1.77;0.63;;;17.50;50.50;;;16.61;50.98;102104.41;12247997;19;20027;-80
2022/10/09 16:41:33;;;;;;;2.15;0.88;;;17.40;50.40;;;16.38;51.14;102090.75;12245740;19;20022;-80
2022/10/09 16:45:35;;;;;;;2.83;0.90;;;17.20;50.50;;;16.36;50.73;102104.94;12247369;19;20112;-80
2022/10/09 16:49:37;;;;;;;2.00;0.68;;;17.10;50.60;;;16.21;51.10;102101.41;12241476;19;20019;-79
2022/10/09 16:53:39;;;;;;;2.30;0.77;;;17.00;50.60;;;16.10;51.08;102098.56;12252797;19;20014;-81
2022/10/09 16:57:40;;;;;;;3.25;0.88;;;16.80;50.60;;;15.96;51.00;102094.06;12263575;19;20014;-81